ADDS METAR Data INFO
IDs: Format: Raw Decoded Include TAF

Data at: 1604 UTC 20 May 2018

ETSI 201520Z AUTO 09011KT //// // ////// 22/05 Q1017 ///